Menu Horizontal
luftaufnahme
Willkommen auf der Webseite der privaten Wetterstation -- Taufkirchen an der Pram -- 48°24'29,52" Nord  <>  13°32'13,20" Ost
Wetterdaten - Freitag, 16.11.2018 - Taufkirchen an der Pram     336 m über NN
Wetterdaten: aktuell Freitag, 16.11.2018 06:30
Datum Zeit Temp. A. Feuchte A. Luftdruck Regen Wind Sonnenschein UV Solar Windchill Empfang
16.11.2018 06:30 -1,9 °C 94 % 1030,5 hPa 0,0 l/m² 0,0 km/h 0 min 0,0 UV-I 0 W/m² -1,9 °C 100 %
16.11.2018 06:20 -1,8 °C 94 % 1030,6 hPa 0,0 l/m² 0,0 km/h 0 min 0,0 UV-I 0 W/m² -1,8 °C 100 %
16.11.2018 06:10 -1,8 °C 94 % 1030,5 hPa 0,0 l/m² 0,0 km/h 0 min 0,0 UV-I 0 W/m² -1,8 °C 99 %
16.11.2018 06:00 -1,7 °C 94 % 1030,5 hPa 0,0 l/m² 0,0 km/h 0 min 0,0 UV-I 0 W/m² -1,7 °C 100 %
16.11.2018 05:50 -1,7 °C 94 % 1030,4 hPa 0,0 l/m² 0,0 km/h 0 min 0,0 UV-I 0 W/m² -1,7 °C 100 %
16.11.2018 05:40 -1,6 °C 94 % 1030,4 hPa 0,0 l/m² 0,0 km/h 0 min 0,0 UV-I 0 W/m² -1,6 °C 100 %
16.11.2018 05:30 -1,5 °C 94 % 1030,3 hPa 0,0 l/m² 0,0 km/h 0 min 0,0 UV-I 0 W/m² -1,5 °C 100 %
16.11.2018 05:20 -1,4 °C 94 % 1030,3 hPa 0,0 l/m² 0,0 km/h 0 min 0,0 UV-I 0 W/m² -1,4 °C 99 %
16.11.2018 05:10 -1,4 °C 94 % 1030,3 hPa 0,0 l/m² 0,0 km/h 0 min 0,0 UV-I 0 W/m² -1,4 °C 100 %
16.11.2018 05:00 -1,3 °C 94 % 1030,3 hPa 0,0 l/m² 0,0 km/h 0 min 0,0 UV-I 0 W/m² -1,3 °C 100 %
16.11.2018 04:50 -1,2 °C 94 % 1030,3 hPa 0,0 l/m² 0,0 km/h 0 min 0,0 UV-I 0 W/m² -1,2 °C 91 %
16.11.2018 04:40 -1,1 °C 93 % 1030,3 hPa 0,0 l/m² 0,0 km/h 0 min 0,0 UV-I 0 W/m² -1,1 °C 100 %
16.11.2018 04:30 -1,0 °C 94 % 1030,3 hPa 0,0 l/m² 0,0 km/h 0 min 0,0 UV-I 0 W/m² -1,0 °C 100 %
16.11.2018 04:20 -0,9 °C 93 % 1030,2 hPa 0,0 l/m² 0,3 km/h 0 min 0,0 UV-I 0 W/m² -0,9 °C 99 %
16.11.2018 04:10 -0,9 °C 93 % 1030,1 hPa 0,0 l/m² 0,0 km/h 0 min 0,0 UV-I 0 W/m² -0,9 °C 100 %
16.11.2018 04:00 -0,8 °C 93 % 1030,1 hPa 0,0 l/m² 0,0 km/h 0 min 0,0 UV-I 0 W/m² -0,8 °C 100 %
16.11.2018 03:50 -0,7 °C 93 % 1030,0 hPa 0,0 l/m² 0,0 km/h 0 min 0,0 UV-I 0 W/m² -0,7 °C 100 %
16.11.2018 03:40 -0,5 °C 93 % 1030,0 hPa 0,0 l/m² 0,0 km/h 0 min 0,0 UV-I 0 W/m² -0,5 °C 100 %
16.11.2018 03:30 -0,3 °C 93 % 1030,0 hPa 0,0 l/m² 0,0 km/h 0 min 0,0 UV-I 0 W/m² -0,3 °C 100 %
16.11.2018 03:20 -0,2 °C 93 % 1030,0 hPa 0,0 l/m² 0,0 km/h 0 min 0,0 UV-I 0 W/m² -0,2 °C 100 %
16.11.2018 03:10 -0,2 °C 93 % 1029,9 hPa 0,0 l/m² 0,1 km/h 0 min 0,0 UV-I 0 W/m² -0,2 °C 99 %
16.11.2018 03:00 0,1 °C 93 % 1030,0 hPa 0,0 l/m² 0,0 km/h 0 min 0,0 UV-I 0 W/m² 0,1 °C 99 %
16.11.2018 02:50 0,2 °C 93 % 1030,1 hPa 0,0 l/m² 0,3 km/h 0 min 0,0 UV-I 0 W/m² 0,2 °C 100 %
16.11.2018 02:40 0,3 °C 93 % 1030,1 hPa 0,0 l/m² 0,5 km/h 0 min 0,0 UV-I 0 W/m² 0,3 °C 100 %
16.11.2018 02:30 0,5 °C 93 % 1030,1 hPa 0,0 l/m² 0,0 km/h 0 min 0,0 UV-I 0 W/m² 0,5 °C 100 %
16.11.2018 02:20 0,8 °C 93 % 1030,2 hPa 0,0 l/m² 0,0 km/h 0 min 0,0 UV-I 0 W/m² 0,8 °C 100 %
16.11.2018 02:10 0,8 °C 93 % 1030,2 hPa 0,0 l/m² 0,0 km/h 0 min 0,0 UV-I 0 W/m² 0,8 °C 100 %
16.11.2018 02:00 0,9 °C 93 % 1030,1 hPa 0,0 l/m² 0,1 km/h 0 min 0,0 UV-I 0 W/m² 0,9 °C 100 %
16.11.2018 01:50 1,0 °C 93 % 1030,1 hPa 0,0 l/m² 0,2 km/h 0 min 0,0 UV-I 0 W/m² 1,0 °C 100 %
16.11.2018 01:40 1,0 °C 100 % 1030,1 hPa 0,0 l/m² 0,0 km/h 0 min 0,0 UV-I 0 W/m² 1,0 °C 100 %
16.11.2018 01:30 1,1 °C 93 % 1030,0 hPa 0,0 l/m² 0,0 km/h 0 min 0,0 UV-I 0 W/m² 1,1 °C 100 %
16.11.2018 01:20 1,2 °C 93 % 1030,0 hPa 0,0 l/m² 0,0 km/h 0 min 0,0 UV-I 0 W/m² 1,2 °C 100 %
16.11.2018 01:10 1,2 °C 93 % 1030,0 hPa 0,0 l/m² 0,1 km/h 0 min 0,0 UV-I 0 W/m² 1,2 °C 100 %
16.11.2018 01:00 1,1 °C 93 % 1029,9 hPa 0,0 l/m² 0,3 km/h 0 min 0,0 UV-I 0 W/m² 1,1 °C 99 %
16.11.2018 00:50 1,1 °C 93 % 1030,0 hPa 0,0 l/m² 0,3 km/h 0 min 0,0 UV-I 0 W/m² 1,1 °C 91 %
16.11.2018 00:40 1,2 °C 92 % 1030,0 hPa 0,0 l/m² 0,2 km/h 0 min 0,0 UV-I 0 W/m² 1,2 °C 100 %
16.11.2018 00:30 1,3 °C 92 % 1030,0 hPa 0,0 l/m² 0,0 km/h 0 min 0,0 UV-I 0 W/m² 1,3 °C 100 %
16.11.2018 00:20 1,6 °C 92 % 1030,1 hPa 0,0 l/m² 0,0 km/h 0 min 0,0 UV-I 0 W/m² 1,6 °C 100 %
16.11.2018 00:10 1,9 °C 93 % 1030,2 hPa 0,0 l/m² 0,0 km/h 0 min 0,0 UV-I 0 W/m² 1,9 °C 100 %
16.11.2018 00:00 2,1 °C 93 % 1030,1 hPa 0,0 l/m² 0,0 km/h 0 min 0,0 UV-I 0 W/m² 2,1 °C 100 %
15.11.2018 23:50 2,3 °C 93 % 1030,0 hPa 0,0 l/m² 0,0 km/h 0 min 0,0 UV-I 0 W/m² 2,3 °C 100 %
15.11.2018 23:40 2,6 °C 93 % 1030,0 hPa 0,0 l/m² 0,1 km/h 0 min 0,0 UV-I 0 W/m² 2,6 °C 100 %
15.11.2018 23:30 2,9 °C 94 % 1030,1 hPa 0,0 l/m² 0,0 km/h 0 min 0,0 UV-I 0 W/m² 2,9 °C 100 %
15.11.2018 23:20 2,9 °C 94 % 1030,0 hPa 0,0 l/m² 0,0 km/h 0 min 0,0 UV-I 0 W/m² 2,9 °C 91 %
15.11.2018 23:10 2,8 °C 95 % 1029,9 hPa 0,0 l/m² 0,0 km/h 0 min 0,0 UV-I 0 W/m² 2,8 °C 100 %
15.11.2018 23:00 2,6 °C 95 % 1029,9 hPa 0,0 l/m² 0,1 km/h 0 min 0,0 UV-I 0 W/m² 2,6 °C 100 %
15.11.2018 22:50 2,2 °C 95 % 1029,8 hPa 0,0 l/m² 0,4 km/h 0 min 0,0 UV-I 0 W/m² 2,2 °C 100 %
15.11.2018 22:40 1,5 °C 94 % 1029,7 hPa 0,0 l/m² 0,4 km/h 0 min 0,0 UV-I 0 W/m² 1,5 °C 100 %
15.11.2018 22:30 1,1 °C 94 % 1029,5 hPa 0,0 l/m² 0,0 km/h 0 min 0,0 UV-I 0 W/m² 1,1 °C 100 %
15.11.2018 22:20 0,9 °C 94 % 1029,4 hPa 0,0 l/m² 0,0 km/h 0 min 0,0 UV-I 0 W/m² 0,9 °C 100 %
15.11.2018 22:10 1,0 °C 94 % 1029,4 hPa 0,0 l/m² 0,0 km/h 0 min 0,0 UV-I 0 W/m² 1,0 °C 100 %
15.11.2018 22:00 0,8 °C 93 % 1029,5 hPa 0,0 l/m² 0,1 km/h 0 min 0,0 UV-I 0 W/m² 0,8 °C 100 %
15.11.2018 21:50 0,8 °C 93 % 1029,5 hPa 0,0 l/m² 0,1 km/h 0 min 0,0 UV-I 0 W/m² 0,8 °C 91 %
15.11.2018 21:40 0,9 °C 93 % 1029,5 hPa 0,0 l/m² 0,0 km/h 0 min 0,0 UV-I 0 W/m² 0,9 °C 100 %
15.11.2018 21:30 1,2 °C 93 % 1029,7 hPa 0,0 l/m² 0,0 km/h 0 min 0,0 UV-I 0 W/m² 1,2 °C 100 %
15.11.2018 21:20 1,3 °C 93 % 1029,6 hPa 0,0 l/m² 0,0 km/h 0 min 0,0 UV-I 0 W/m² 1,3 °C 100 %
15.11.2018 21:10 1,3 °C 93 % 1029,5 hPa 0,0 l/m² 0,0 km/h 0 min 0,0 UV-I 0 W/m² 1,3 °C 99 %
15.11.2018 21:00 1,3 °C 93 % 1029,4 hPa 0,0 l/m² 0,0 km/h 0 min 0,0 UV-I 0 W/m² 1,3 °C 99 %
15.11.2018 20:50 1,4 °C 92 % 1029,4 hPa 0,0 l/m² 0,0 km/h 0 min 0,0 UV-I 0 W/m² 1,4 °C 100 %
15.11.2018 20:40 1,5 °C 92 % 1029,3 hPa 0,0 l/m² 0,0 km/h 0 min 0,0 UV-I 0 W/m² 1,5 °C 100 %
15.11.2018 20:30 1,6 °C 92 % 1029,2 hPa 0,0 l/m² 0,0 km/h 0 min 0,0 UV-I 0 W/m² 1,6 °C 100 %
15.11.2018 20:20 1,7 °C 92 % 1029,3 hPa 0,0 l/m² 0,0 km/h 0 min 0,0 UV-I 0 W/m² 1,7 °C 100 %
15.11.2018 20:10 1,8 °C 91 % 1029,4 hPa 0,0 l/m² 0,0 km/h 0 min 0,0 UV-I 0 W/m² 1,8 °C 100 %
15.11.2018 20:00 2,1 °C 91 % 1029,3 hPa 0,0 l/m² 0,0 km/h 0 min 0,0 UV-I 0 W/m² 2,1 °C 100 %
15.11.2018 19:50 2,2 °C 91 % 1029,2 hPa 0,0 l/m² 0,0 km/h 0 min 0,0 UV-I 0 W/m² 2,2 °C 100 %
15.11.2018 19:40 2,3 °C 91 % 1029,3 hPa 0,0 l/m² 0,0 km/h 0 min 0,0 UV-I 0 W/m² 2,3 °C 100 %
15.11.2018 19:30 2,6 °C 91 % 1029,4 hPa 0,0 l/m² 0,0 km/h 0 min 0,0 UV-I 0 W/m² 2,6 °C 100 %
15.11.2018 19:20 2,8 °C 91 % 1029,4 hPa 0,0 l/m² 0,0 km/h 0 min 0,0 UV-I 0 W/m² 2,8 °C 100 %
15.11.2018 19:10 3,1 °C 91 % 1029,3 hPa 0,0 l/m² 0,0 km/h 0 min 0,0 UV-I 0 W/m² 3,1 °C 100 %
15.11.2018 19:00 3,2 °C 91 % 1029,2 hPa 0,0 l/m² 0,0 km/h 0 min 0,0 UV-I 0 W/m² 3,2 °C 100 %
15.11.2018 18:50 3,3 °C 91 % 1029,2 hPa 0,0 l/m² 0,0 km/h 0 min 0,0 UV-I 0 W/m² 3,3 °C 100 %
15.11.2018 18:40 3,6 °C 90 % 1029,1 hPa 0,0 l/m² 0,0 km/h 0 min 0,0 UV-I 0 W/m² 3,6 °C 99 %
15.11.2018 18:30 3,8 °C 89 % 1029,2 hPa 0,0 l/m² 0,0 km/h 0 min 0,0 UV-I 0 W/m² 3,8 °C 100 %
15.11.2018 18:20 4,2 °C 88 % 1029,1 hPa 0,0 l/m² 0,0 km/h 0 min 0,0 UV-I 0 W/m² 4,2 °C 100 %
15.11.2018 18:10 4,7 °C 87 % 1029,0 hPa 0,0 l/m² 0,2 km/h 0 min 0,0 UV-I 0 W/m² 4,7 °C 100 %
15.11.2018 18:00 5,3 °C 86 % 1028,9 hPa 0,0 l/m² 0,0 km/h 0 min 0,0 UV-I 0 W/m² 5,3 °C 100 %
15.11.2018 17:50 5,6 °C 86 % 1028,9 hPa 0,0 l/m² 0,0 km/h 0 min 0,0 UV-I 0 W/m² 5,6 °C 100 %
15.11.2018 17:40 6,3 °C 83 % 1028,8 hPa 0,0 l/m² 0,0 km/h 0 min 0,0 UV-I 0 W/m² 6,3 °C 100 %
15.11.2018 17:30 6,9 °C 82 % 1028,6 hPa 0,0 l/m² 0,0 km/h 0 min 0,0 UV-I 0 W/m² 6,9 °C 100 %
15.11.2018 17:20 7,2 °C 82 % 1028,5 hPa 0,0 l/m² 0,0 km/h 0 min 0,0 UV-I 0 W/m² 7,2 °C 100 %
15.11.2018 17:10 7,5 °C 81 % 1028,4 hPa 0,0 l/m² 0,0 km/h 0 min 0,0 UV-I 0 W/m² 7,5 °C 99 %
15.11.2018 17:00 7,7 °C 81 % 1028,5 hPa 0,0 l/m² 0,0 km/h 0 min 0,0 UV-I 0 W/m² 7,7 °C 100 %
15.11.2018 16:50 7,9 °C 80 % 1028,5 hPa 0,0 l/m² 0,0 km/h 0 min 0,0 UV-I 0 W/m² 7,9 °C 100 %
15.11.2018 16:40 8,3 °C 80 % 1028,4 hPa 0,0 l/m² 0,0 km/h 0 min 0,0 UV-I 0 W/m² 8,3 °C 100 %
15.11.2018 16:30 8,4 °C 79 % 1028,4 hPa 0,0 l/m² 0,3 km/h 0 min 0,0 UV-I 2 W/m² 8,4 °C 100 %
15.11.2018 16:20 8,8 °C 79 % 1028,4 hPa 0,0 l/m² 0,1 km/h 0 min 0,0 UV-I 9 W/m² 8,8 °C 100 %
15.11.2018 16:10 9,0 °C 78 % 1028,3 hPa 0,0 l/m² 0,2 km/h 0 min 0,0 UV-I 15 W/m² 9,0 °C 100 %
15.11.2018 16:00 9,2 °C 78 % 1028,3 hPa 0,0 l/m² 0,8 km/h 0 min 0,0 UV-I 19 W/m² 9,2 °C 100 %
15.11.2018 15:50 9,3 °C 77 % 1028,3 hPa 0,0 l/m² 5,3 km/h 0 min 0,0 UV-I 23 W/m² 9,3 °C 100 %
15.11.2018 15:40 9,4 °C 76 % 1028,1 hPa 0,0 l/m² 5,4 km/h 0 min 0,0 UV-I 26 W/m² 9,4 °C 100 %
15.11.2018 15:30 9,6 °C 76 % 1028,0 hPa 0,0 l/m² 6,2 km/h 0 min 0,0 UV-I 30 W/m² 9,6 °C 100 %
15.11.2018 15:20 9,6 °C 76 % 1028,1 hPa 0,0 l/m² 5,6 km/h 0 min 0,0 UV-I 33 W/m² 9,6 °C 100 %
15.11.2018 15:10 9,6 °C 75 % 1028,1 hPa 0,0 l/m² 6,7 km/h 0 min 0,0 UV-I 37 W/m² 9,4 °C 100 %
15.11.2018 15:00 9,7 °C 75 % 1028,1 hPa 0,0 l/m² 7,6 km/h 10 min 0,4 UV-I 106 W/m² 8,8 °C 100 %
15.11.2018 14:50 9,7 °C 74 % 1028,0 hPa 0,0 l/m² 8,9 km/h 0 min 0,2 UV-I 68 W/m² 7,9 °C 100 %
15.11.2018 14:40 9,8 °C 75 % 1028,0 hPa 0,0 l/m² 7,8 km/h 10 min 0,7 UV-I 166 W/m² 8,8 °C 100 %
15.11.2018 14:30 10,0 °C 74 % 1027,9 hPa 0,0 l/m² 6,2 km/h 10 min 0,7 UV-I 175 W/m² 10,0 °C 100 %
15.11.2018 14:20 10,1 °C 74 % 1028,0 hPa 0,0 l/m² 4,7 km/h 10 min 0,8 UV-I 236 W/m² 10,1 °C 100 %
15.11.2018 14:10 10,1 °C 76 % 1028,1 hPa 0,0 l/m² 4,6 km/h 10 min 0,9 UV-I 248 W/m² 10,1 °C 100 %
15.11.2018 14:00 9,9 °C 76 % 1028,1 hPa 0,0 l/m² 6,3 km/h 10 min 1,0 UV-I 268 W/m² 9,9 °C 100 %
15.11.2018 13:50 9,9 °C 75 % 1028,1 hPa 0,0 l/m² 7,9 km/h 10 min 1,0 UV-I 242 W/m² 8,8 °C 100 %
15.11.2018 13:40 9,9 °C 75 % 1028,1 hPa 0,0 l/m² 4,1 km/h 10 min 1,1 UV-I 215 W/m² 9,9 °C 100 %
15.11.2018 13:30 9,8 °C 76 % 1028,2 hPa 0,0 l/m² 4,4 km/h 10 min 1,2 UV-I 287 W/m² 9,8 °C 100 %
15.11.2018 13:20 9,8 °C 77 % 1028,3 hPa 0,0 l/m² 1,9 km/h 10 min 1,3 UV-I 313 W/m² 9,8 °C 100 %
15.11.2018 13:10 9,4 °C 77 % 1028,4 hPa 0,0 l/m² 3,3 km/h 10 min 1,3 UV-I 293 W/m² 9,4 °C 100 %
15.11.2018 13:00 9,3 °C 78 % 1028,5 hPa 0,0 l/m² 4,0 km/h 10 min 1,4 UV-I 330 W/m² 9,3 °C 100 %
15.11.2018 12:50 8,9 °C 79 % 1028,8 hPa 0,0 l/m² 2,5 km/h 10 min 1,4 UV-I 335 W/m² 8,9 °C 100 %
15.11.2018 12:40 8,8 °C 81 % 1029,0 hPa 0,0 l/m² 0,6 km/h 10 min 1,5 UV-I 325 W/m² 8,8 °C 100 %
15.11.2018 12:30 8,3 °C 83 % 1029,0 hPa 0,0 l/m² 1,4 km/h 10 min 1,5 UV-I 338 W/m² 8,3 °C 100 %
15.11.2018 12:20 8,0 °C 85 % 1029,1 hPa 0,0 l/m² 0,2 km/h 10 min 1,5 UV-I 339 W/m² 8,0 °C 100 %
15.11.2018 12:10 7,4 °C 86 % 1029,2 hPa 0,0 l/m² 0,7 km/h 10 min 1,5 UV-I 322 W/m² 7,4 °C 100 %
15.11.2018 12:00 7,0 °C 89 % 1029,4 hPa 0,0 l/m² 0,6 km/h 10 min 1,5 UV-I 291 W/m² 7,0 °C 100 %
15.11.2018 11:50 6,2 °C 90 % 1029,5 hPa 0,0 l/m² 0,2 km/h 10 min 1,6 UV-I 338 W/m² 6,2 °C 100 %
15.11.2018 11:40 6,2 °C 92 % 1029,7 hPa 0,0 l/m² 0,3 km/h 10 min 1,5 UV-I 344 W/m² 6,2 °C 100 %
15.11.2018 11:30 5,6 °C 93 % 1029,7 hPa 0,0 l/m² 0,7 km/h 10 min 1,6 UV-I 356 W/m² 5,6 °C 100 %
15.11.2018 11:20 5,2 °C 95 % 1029,9 hPa 0,0 l/m² 2,1 km/h 10 min 1,5 UV-I 328 W/m² 5,2 °C 100 %
15.11.2018 11:10 4,9 °C 96 % 1030,0 hPa 0,0 l/m² 1,4 km/h 10 min 1,5 UV-I 375 W/m² 4,9 °C 100 %
15.11.2018 11:00 4,5 °C 97 % 1030,0 hPa 0,0 l/m² 4,8 km/h 10 min 1,4 UV-I 359 W/m² 4,5 °C 100 %
15.11.2018 10:50 4,2 °C 97 % 1030,2 hPa 0,0 l/m² 3,6 km/h 10 min 1,2 UV-I 201 W/m² 4,2 °C 100 %
15.11.2018 10:40 4,2 °C 97 % 1030,3 hPa 0,0 l/m² 4,0 km/h 10 min 1,2 UV-I 205 W/m² 4,2 °C 100 %
15.11.2018 10:30 4,2 °C 97 % 1030,4 hPa 0,0 l/m² 3,3 km/h 10 min 1,0 UV-I 184 W/m² 4,2 °C 100 %
15.11.2018 10:20 4,1 °C 97 % 1030,4 hPa 0,0 l/m² 1,3 km/h 10 min 0,8 UV-I 152 W/m² 4,1 °C 100 %
15.11.2018 10:10 4,1 °C 97 % 1030,3 hPa 0,0 l/m² 2,5 km/h 10 min 0,8 UV-I 139 W/m² 4,1 °C 100 %
15.11.2018 10:00 4,2 °C 97 % 1030,3 hPa 0,0 l/m² 1,2 km/h 10 min 0,8 UV-I 256 W/m² 4,2 °C 100 %
15.11.2018 09:50 3,6 °C 97 % 1030,3 hPa 0,0 l/m² 3,5 km/h 10 min 0,7 UV-I 133 W/m² 3,6 °C 100 %
15.11.2018 09:40 3,3 °C 97 % 1030,2 hPa 0,0 l/m² 3,5 km/h 10 min 0,7 UV-I 112 W/m² 3,3 °C 100 %
15.11.2018 09:30 3,3 °C 97 % 1030,3 hPa 0,0 l/m² 0,7 km/h 0 min 0,5 UV-I 86 W/m² 3,3 °C 100 %
15.11.2018 09:20 2,9 °C 97 % 1030,3 hPa 0,0 l/m² 1,0 km/h 0 min 0,4 UV-I 62 W/m² 2,9 °C 100 %
15.11.2018 09:10 2,8 °C 97 % 1030,3 hPa 0,0 l/m² 1,1 km/h 0 min 0,1 UV-I 53 W/m² 2,8 °C 100 %
15.11.2018 09:00 2,7 °C 97 % 1030,3 hPa 0,0 l/m² 0,1 km/h 0 min 0,0 UV-I 38 W/m² 2,7 °C 100 %
15.11.2018 08:50 2,7 °C 97 % 1030,3 hPa 0,0 l/m² 2,3 km/h 0 min 0,0 UV-I 40 W/m² 2,7 °C 100 %
15.11.2018 08:40 2,6 °C 97 % 1030,3 hPa 0,0 l/m² 1,3 km/h 0 min 0,0 UV-I 44 W/m² 2,6 °C 100 %
15.11.2018 08:30 2,6 °C 97 % 1030,4 hPa 0,0 l/m² 2,2 km/h 0 min 0,0 UV-I 37 W/m² 2,6 °C 100 %
15.11.2018 08:20 2,6 °C 97 % 1030,3 hPa 0,0 l/m² 1,2 km/h 0 min 0,0 UV-I 36 W/m² 2,6 °C 100 %
15.11.2018 08:10 2,6 °C 97 % 1030,2 hPa 0,0 l/m² 0,6 km/h 0 min 0,0 UV-I 25 W/m² 2,6 °C 100 %
15.11.2018 08:00 2,6 °C 97 % 1030,1 hPa 0,0 l/m² 0,2 km/h 0 min 0,0 UV-I 15 W/m² 2,6 °C 100 %
15.11.2018 07:50 2,5 °C 97 % 1030,1 hPa 0,0 l/m² 0,3 km/h 0 min 0,0 UV-I 13 W/m² 2,5 °C 100 %
15.11.2018 07:40 2,6 °C 97 % 1030,1 hPa 0,0 l/m² 0,0 km/h 0 min 0,0 UV-I 7 W/m² 2,6 °C 100 %
15.11.2018 07:30 2,4 °C 97 % 1030,0 hPa 0,0 l/m² 0,0 km/h 0 min 0,0 UV-I 0 W/m² 2,4 °C 100 %
15.11.2018 07:20 2,4 °C 97 % 1029,9 hPa 0,0 l/m² 0,0 km/h 0 min 0,0 UV-I 0 W/m² 2,4 °C 100 %
15.11.2018 07:10 2,4 °C 97 % 1029,8 hPa 0,0 l/m² 0,0 km/h 0 min 0,0 UV-I 0 W/m² 2,4 °C 100 %
15.11.2018 07:00 2,5 °C 97 % 1029,7 hPa 0,0 l/m² 0,0 km/h 0 min 0,0 UV-I 0 W/m² 2,5 °C 100 %
_ Min-Zeit 06:30 14:50 14:30 - 06:30 - - - 06:30 23:20
Minimum _ -1,9 °C 74 % 1027,9 hPa - 0,0 km/h - - - -1,9 °C 91 %
_ Max-Zeit 14:20 01:40 06:20 06:30 14:50 15:00 11:50 11:10 14:20 05:40
Maximum _ 10,1 °C 100 % 1030,6 hPa 0,0 l/m² 8,9 km/h
O-SO
10 min 1,6 UV-I 375 W/m² 10,1 °C 100 %
Durchschnitt _ 3,4 °C 90 % 1029,5 hPa #0,0 l/m² 1,0 km/h #0 min. 0,0 UV-I 0 W/m² 3,4 °C 100 %